createdAt,value
2023-04-25T00:04:16.161Z,6.60
2023-04-25T00:10:24.929Z,6.70
2023-04-25T00:16:35.073Z,6.80
2023-04-25T00:22:44.940Z,6.70
2023-04-25T00:28:53.020Z,6.70
2023-04-25T00:35:03.026Z,6.60
2023-04-25T00:41:13.869Z,6.70
2023-04-25T00:47:22.869Z,6.60
2023-04-25T00:53:34.036Z,6.60
2023-04-25T00:59:47.142Z,6.70
2023-04-25T01:05:55.866Z,6.80
2023-04-25T01:12:04.905Z,6.70
2023-04-25T01:18:13.945Z,6.50
2023-04-25T01:24:29.846Z,6.50
2023-04-25T01:30:38.803Z,6.50
2023-04-25T01:36:47.900Z,6.50
2023-04-25T01:42:56.097Z,6.40
2023-04-25T01:49:04.957Z,6.40
2023-04-25T01:55:17.013Z,6.50
2023-04-25T02:01:25.957Z,6.30
2023-04-25T02:07:34.997Z,6.40
2023-04-25T02:13:45.756Z,6.40
2023-04-25T02:19:53.906Z,6.40
2023-04-25T02:26:08.897Z,6.40
2023-04-25T02:32:17.190Z,6.30
2023-04-25T02:38:26.075Z,6.20
2023-04-25T02:44:34.875Z,6.10
2023-04-25T02:50:43.864Z,6.10
2023-04-25T02:56:51.898Z,6.10
2023-04-25T03:02:59.930Z,6.10
2023-04-25T03:09:07.868Z,6.10
2023-04-25T03:15:16.850Z,6.20
2023-04-25T03:21:24.854Z,6.10
2023-04-25T03:27:39.852Z,6.10
2023-04-25T03:33:47.999Z,6.10
2023-04-25T03:39:56.873Z,6.20
2023-04-25T03:46:11.905Z,6.20
2023-04-25T03:52:19.918Z,6.00
2023-04-25T03:58:27.885Z,6.20
2023-04-25T04:04:36.140Z,6.20
2023-04-25T04:10:44.845Z,6.10
2023-04-25T04:16:53.846Z,6.10
2023-04-25T04:23:01.864Z,6.00
2023-04-25T04:29:17.889Z,6.00
2023-04-25T04:35:25.930Z,5.90
2023-04-25T04:41:34.208Z,5.90
2023-04-25T04:47:44.240Z,6.00
2023-04-25T04:53:53.350Z,5.90
2023-04-25T05:00:02.353Z,5.90
2023-04-25T05:06:10.882Z,6.00
2023-04-25T05:12:18.854Z,6.00
2023-04-25T05:18:26.836Z,5.90
2023-04-25T05:24:41.836Z,6.10
2023-04-25T05:30:49.865Z,6.00
2023-04-25T05:36:57.834Z,6.00
2023-04-25T05:43:05.900Z,6.20
2023-04-25T05:49:15.388Z,6.00
2023-04-25T05:55:24.842Z,6.20
2023-04-25T06:01:32.868Z,6.30
2023-04-25T06:07:40.849Z,6.20
2023-04-25T06:13:49.150Z,6.20
2023-04-25T06:20:05.734Z,6.20
2023-04-25T06:26:21.842Z,6.30
2023-04-25T06:32:29.849Z,6.30
2023-04-25T06:38:41.348Z,6.30
2023-04-25T06:44:49.914Z,6.30
2023-04-25T06:50:57.970Z,6.50
2023-04-25T06:57:07.948Z,6.60
2023-04-25T07:03:15.967Z,6.50
2023-04-25T07:09:24.850Z,6.70
2023-04-25T07:15:32.842Z,6.60
2023-04-25T07:21:41.869Z,7.00
2023-04-25T07:27:56.901Z,6.90
2023-04-25T07:34:04.978Z,7.00
2023-04-25T07:40:14.874Z,7.10
2023-04-25T07:46:22.902Z,7.20
2023-04-25T07:52:31.878Z,7.30
2023-04-25T07:58:39.892Z,7.30
2023-04-25T08:04:48.018Z,7.70
2023-04-25T08:10:56.857Z,8.00
2023-04-25T08:17:04.937Z,8.00
2023-04-25T08:23:13.855Z,8.40
2023-04-25T08:29:22.878Z,7.80
2023-04-25T08:35:30.954Z,7.60
2023-04-25T08:41:39.948Z,8.00
2023-04-25T08:47:49.005Z,8.50
2023-04-25T08:54:06.852Z,8.50
2023-04-25T09:00:19.860Z,8.10
2023-04-25T09:06:29.864Z,7.70
2023-04-25T09:12:39.020Z,7.70
2023-04-25T09:18:48.993Z,7.80
2023-04-25T09:25:04.884Z,7.60
2023-04-25T09:31:12.943Z,7.60
2023-04-25T09:37:31.967Z,7.50
2023-04-25T09:43:41.218Z,7.50
2023-04-25T09:49:50.878Z,7.50
2023-04-25T09:56:00.060Z,7.50
2023-04-25T10:02:08.886Z,7.60
2023-04-25T10:08:19.891Z,8.10
2023-04-25T10:14:29.919Z,9.10
2023-04-25T10:20:38.860Z,9.50
2023-04-25T10:26:55.867Z,9.70
2023-04-25T10:33:05.858Z,10.10
2023-04-25T10:39:16.978Z,9.50
2023-04-25T10:45:24.989Z,9.30
2023-04-25T10:51:55.047Z,8.90
2023-04-25T10:58:03.922Z,9.10
2023-04-25T11:04:13.179Z,9.20
2023-04-25T11:10:21.917Z,9.00
2023-04-25T11:16:32.940Z,8.80
2023-04-25T11:22:42.063Z,8.70
2023-04-25T11:28:52.893Z,8.70
2023-04-25T11:35:01.912Z,8.50
2023-04-25T11:41:11.011Z,8.30
2023-04-25T11:47:19.090Z,8.50
2023-04-25T11:53:27.199Z,8.90
2023-04-25T11:59:35.890Z,9.10
2023-04-25T12:05:45.146Z,9.20
2023-04-25T12:12:04.259Z,9.50
2023-04-25T12:18:14.060Z,9.90
2023-04-25T12:24:26.107Z,10.40
2023-04-25T12:30:34.918Z,9.90
2023-04-25T12:36:43.057Z,10.00
2023-04-25T12:42:50.885Z,10.20
2023-04-25T12:49:05.365Z,10.80
2023-04-25T12:55:19.878Z,10.30
2023-04-25T13:01:29.005Z,9.40
2023-04-25T13:07:37.905Z,9.60
2023-04-25T13:13:47.859Z,10.40
2023-04-25T13:20:12.877Z,10.10
2023-04-25T13:26:27.951Z,10.00
2023-04-25T13:32:35.844Z,10.40
2023-04-25T13:38:45.058Z,10.60
2023-04-25T13:45:00.881Z,10.10
2023-04-25T13:51:08.859Z,9.60
2023-04-25T13:57:18.842Z,10.10
2023-04-25T14:03:27.127Z,10.70
2023-04-25T14:09:35.850Z,10.70
2023-04-25T14:15:44.889Z,10.70
2023-04-25T14:21:53.918Z,10.20
2023-04-25T14:28:08.880Z,10.40
2023-04-25T14:34:17.891Z,10.20
2023-04-25T14:40:29.853Z,9.70
2023-04-25T14:46:38.125Z,10.10
2023-04-25T14:52:46.963Z,10.70
2023-04-25T14:58:55.910Z,10.20
2023-04-25T15:05:04.917Z,9.40
2023-04-25T15:11:12.899Z,9.00
2023-04-25T15:17:21.858Z,8.10
2023-04-25T15:23:31.871Z,7.60
2023-04-25T15:29:39.891Z,7.20
2023-04-25T15:35:47.934Z,7.30
2023-04-25T15:41:56.868Z,7.60
2023-04-25T15:48:05.932Z,7.80
2023-04-25T15:54:14.937Z,7.80
2023-04-25T16:00:28.934Z,8.50
2023-04-25T16:06:37.938Z,9.20
2023-04-25T16:12:49.212Z,9.40
2023-04-25T16:18:57.895Z,8.60
2023-04-25T16:25:05.880Z,8.40
2023-04-25T16:31:14.965Z,8.10
2023-04-25T16:37:23.881Z,7.90
2023-04-25T16:43:38.959Z,7.70
2023-04-25T16:49:47.878Z,7.60
2023-04-25T16:55:56.843Z,7.70
2023-04-25T17:02:05.983Z,8.30
2023-04-25T17:08:14.969Z,9.00
2023-04-25T17:14:23.240Z,9.30
2023-04-25T17:20:32.424Z,9.20
2023-04-25T17:26:40.878Z,9.00
2023-04-25T17:32:48.969Z,8.40
2023-04-25T17:38:56.909Z,8.00
2023-04-25T17:45:04.855Z,7.90
2023-04-25T17:51:13.903Z,7.80
2023-04-25T17:57:22.860Z,7.50
2023-04-25T18:03:31.004Z,7.20
2023-04-25T18:09:40.890Z,7.30
2023-04-25T18:15:48.870Z,7.10
2023-04-25T18:22:00.917Z,6.90
2023-04-25T18:28:15.850Z,6.90
2023-04-25T18:34:27.523Z,6.90
2023-04-25T18:40:41.582Z,6.60
2023-04-25T18:46:58.915Z,6.70
2023-04-25T18:53:07.028Z,6.70
2023-04-25T18:59:14.868Z,6.60
2023-04-25T19:05:23.897Z,6.50
2023-04-25T19:11:31.896Z,6.40
2023-04-25T19:17:39.893Z,6.50
2023-04-25T19:23:47.877Z,6.40
2023-04-25T19:30:04.898Z,6.40
2023-04-25T19:36:13.868Z,6.20
2023-04-25T19:42:22.905Z,6.20
2023-04-25T19:48:30.875Z,6.20
2023-04-25T19:54:40.974Z,6.00
2023-04-25T20:00:48.893Z,6.00
2023-04-25T20:06:57.859Z,5.90
2023-04-25T20:13:05.879Z,5.90
2023-04-25T20:19:13.947Z,5.90
2023-04-25T20:25:21.901Z,5.90
2023-04-25T20:31:30.951Z,5.90
2023-04-25T20:37:39.892Z,5.80
2023-04-25T20:43:48.857Z,5.70
2023-04-25T20:49:57.848Z,5.60
2023-04-25T20:56:05.894Z,5.50
2023-04-25T21:02:17.918Z,5.60
2023-04-25T21:08:25.895Z,5.50
2023-04-25T21:14:33.868Z,5.40
2023-04-25T21:20:42.888Z,5.40
2023-04-25T21:26:51.884Z,5.60
2023-04-25T21:33:01.045Z,5.30
2023-04-25T21:39:09.892Z,5.30
2023-04-25T21:45:18.896Z,5.30
2023-04-25T21:51:27.898Z,5.20
2023-04-25T21:57:35.887Z,5.10
2023-04-25T22:03:43.973Z,5.00
2023-04-25T22:09:55.498Z,5.00
2023-04-25T22:16:04.083Z,4.80
2023-04-25T22:22:12.883Z,4.80
2023-04-25T22:28:27.936Z,4.60
2023-04-25T22:34:35.908Z,4.50
2023-04-25T22:40:43.871Z,4.60
2023-04-25T22:46:51.851Z,4.70
2023-04-25T22:52:59.894Z,4.60
2023-04-25T22:59:07.899Z,4.40
2023-04-25T23:05:16.048Z,4.50
2023-04-25T23:11:24.956Z,4.20
2023-04-25T23:17:33.889Z,4.10
2023-04-25T23:23:42.903Z,4.00
2023-04-25T23:30:01.877Z,4.00
2023-04-25T23:36:10.906Z,4.00
2023-04-25T23:42:18.900Z,4.00
2023-04-25T23:48:26.927Z,3.90
2023-04-25T23:54:34.881Z,3.70
